
Distance (Route):
Temperature : -49.0°C
Humidity : 57.2%
Pressure : 0hPa| Receiver | Frames | First received | Last received |
|---|---|---|---|
| LZ4TU-5 | 44 | 2026-09-03 11:08:26 | 2026-09-03 12:39:13 |
| Receiver | Date | Latitude | Longitude | Direction | Speed | Altitude | Climb | Temperature | Humidity | Pressure | Voltage | Killtimer | Uptime | BKT | XDATA |
|---|---|---|---|---|---|---|---|---|---|---|---|---|---|---|---|
| LZ4TU-5 | 2026-09-03 12:39:13 | 44.59914 | 26.98713 | 0° | 0km/h | 13813m | 0.0m/s | -49.0°C | 57.2% | 0hPa | 0V | 00:00:00 | 00:00:00 | 00:00:00 | |
| LZ4TU-5 | 2026-09-03 12:39:08 | 44.59914 | 26.98713 | 0° | 0km/h | 13813m | 0.0m/s | -49.3°C | 54.7% | 0hPa | 0V | 00:00:00 | 00:00:00 | 00:00:00 | |
| LZ4TU-5 | 2026-09-03 12:12:57 | 44.56894 | 26.84145 | 60° | 22km/h | 17943m | 4.2m/s | -56.0°C | 1.4% | 0hPa | 0V | 00:00:00 | 00:00:00 | 00:00:00 | |
| LZ4TU-5 | 2026-09-03 12:12:52 | 44.56879 | 26.84117 | 50° | 16km/h | 17919m | 4.1m/s | -55.9°C | 1.4% | 0hPa | 0V | 00:00:00 | 00:00:00 | 00:00:00 | |
| LZ4TU-5 | 2026-09-03 12:09:31 | 44.56495 | 26.81735 | 94° | 40km/h | 16955m | 4.8m/s | -55.3°C | 1.5% | 0hPa | 0V | 00:00:00 | 00:00:00 | 00:00:00 | |
| LZ4TU-5 | 2026-09-03 12:09:26 | 44.56495 | 26.81662 | 91° | 44km/h | 16932m | 4.9m/s | -55.3°C | 1.7% | 0hPa | 0V | 00:00:00 | 00:00:00 | 00:00:00 | |
| LZ4TU-5 | 2026-09-03 11:55:58 | 44.52995 | 26.62690 | 69° | 93km/h | 13316m | 4.6m/s | -53.3°C | 2.7% | 0hPa | 0V | 00:00:00 | 00:00:00 | 00:00:00 | |
| LZ4TU-5 | 2026-09-03 11:55:53 | 44.52952 | 26.62543 | 69° | 86km/h | 13297m | 4.3m/s | -53.1°C | 0% | 0hPa | 0V | 00:00:00 | 00:00:00 | 00:00:00 | |
| LZ4TU-5 | 2026-09-03 11:53:17 | 44.51624 | 26.58456 | 63° | 77km/h | 12642m | 4.0m/s | -50.6°C | 0% | 0hPa | 0V | 00:00:00 | 00:00:00 | 00:00:00 | |
| LZ4TU-5 | 2026-09-03 11:53:12 | 44.51578 | 26.58335 | 62° | 78km/h | 12622m | 4.3m/s | -50.6°C | 0% | 0hPa | 0V | 00:00:00 | 00:00:00 | 00:00:00 | |
| LZ4TU-5 | 2026-09-03 11:38:36 | 44.45333 | 26.37650 | 82° | 53km/h | 8989m | 3.6m/s | -38.3°C | 0% | 0hPa | 0V | 00:00:00 | 00:00:00 | 00:00:00 | |
| LZ4TU-5 | 2026-09-03 11:38:33 | 44.45326 | 26.37576 | 83° | 51km/h | 8974m | 3.9m/s | -38.2°C | 0% | 0hPa | 0V | 00:00:00 | 00:00:00 | 00:00:00 | |
| LZ4TU-5 | 2026-09-03 11:31:09 | 44.45681 | 26.31042 | 101° | 38km/h | 7258m | 3.8m/s | -24.5°C | 0% | 0hPa | 0V | 00:00:00 | 00:00:00 | 00:00:00 | |
| LZ4TU-5 | 2026-09-03 11:31:04 | 44.45691 | 26.30976 | 103° | 38km/h | 7239m | 4.3m/s | -24.3°C | 0% | 0hPa | 0V | 00:00:00 | 00:00:00 | 00:00:00 | |
| LZ4TU-5 | 2026-09-03 11:26:17 | 44.46591 | 26.27548 | 106° | 29km/h | 6141m | 2.5m/s | -15.7°C | 0% | 0hPa | 0V | 00:00:00 | 00:00:00 | 00:00:00 | |
| LZ4TU-5 | 2026-09-03 11:26:12 | 44.46602 | 26.27504 | 115° | 26km/h | 6123m | 4.3m/s | -15.6°C | 0% | 0hPa | 0V | 00:00:00 | 00:00:00 | 00:00:00 | |
| LZ4TU-5 | 2026-09-03 11:25:03 | 44.46753 | 26.26838 | 109° | 29km/h | 5862m | 3.5m/s | -14.5°C | 0% | 0hPa | 0V | 00:00:00 | 00:00:00 | 00:00:00 | |
| LZ4TU-5 | 2026-09-03 11:24:59 | 44.46763 | 26.26797 | 108° | 31km/h | 5847m | 3.2m/s | -14.4°C | 0% | 0hPa | 0V | 00:00:00 | 00:00:00 | 00:00:00 | |
| LZ4TU-5 | 2026-09-03 11:23:49 | 44.46950 | 26.26069 | 117° | 33km/h | 5588m | 3.1m/s | -12.7°C | 0% | 0hPa | 0V | 00:00:00 | 00:00:00 | 00:00:00 | |
| LZ4TU-5 | 2026-09-03 11:23:45 | 44.46963 | 26.26030 | 113° | 31km/h | 5574m | 2.8m/s | -12.6°C | 0% | 0hPa | 0V | 00:00:00 | 00:00:00 | 00:00:00 | |
| LZ4TU-5 | 2026-09-03 11:22:34 | 44.47155 | 26.25257 | 123° | 29km/h | 5306m | 4.3m/s | -10.9°C | 0% | 0hPa | 0V | 00:00:00 | 00:00:00 | 00:00:00 | |
| LZ4TU-5 | 2026-09-03 11:22:31 | 44.47168 | 26.25223 | 117° | 27km/h | 5291m | 4.7m/s | -10.7°C | 0% | 0hPa | 0V | 00:00:00 | 00:00:00 | 00:00:00 | |
| LZ4TU-5 | 2026-09-03 11:21:20 | 44.47384 | 26.24656 | 114° | 26km/h | 5024m | 4.4m/s | -9.0°C | 0% | 0hPa | 0V | 00:00:00 | 00:00:00 | 00:00:00 | |
| LZ4TU-5 | 2026-09-03 11:21:15 | 44.47401 | 26.24617 | 128° | 27km/h | 5006m | 3.7m/s | -8.8°C | 0% | 0hPa | 0V | 00:00:00 | 00:00:00 | 00:00:00 | |
| LZ4TU-5 | 2026-09-03 11:20:06 | 44.47697 | 26.24086 | 129° | 31km/h | 4737m | 4.1m/s | -7.3°C | 0% | 0hPa | 0V | 00:00:00 | 00:00:00 | 00:00:00 | |
| LZ4TU-5 | 2026-09-03 11:20:02 | 44.47721 | 26.24045 | 126° | 29km/h | 4715m | 4.1m/s | -7.2°C | 0% | 0hPa | 0V | 00:00:00 | 00:00:00 | 00:00:00 | |
| LZ4TU-5 | 2026-09-03 11:18:42 | 44.48034 | 26.23404 | 122° | 27km/h | 4351m | 4.8m/s | -4.1°C | 0% | 0hPa | 0V | 00:00:00 | 00:00:00 | 00:00:00 | |
| LZ4TU-5 | 2026-09-03 11:17:38 | 44.48291 | 26.22878 | 127° | 29km/h | 4065m | 4.6m/s | -2.1°C | 0% | 0hPa | 0V | 00:00:00 | 00:00:00 | 00:00:00 | |
| LZ4TU-5 | 2026-09-03 11:17:34 | 44.48308 | 26.22845 | 127° | 29km/h | 4049m | 4.0m/s | -2.1°C | 0% | 0hPa | 0V | 00:00:00 | 00:00:00 | 00:00:00 | |
| LZ4TU-5 | 2026-09-03 11:16:29 | 44.48584 | 26.22320 | 126° | 31km/h | 3795m | 3.4m/s | -0.5°C | 0% | 0hPa | 0V | 00:00:00 | 00:00:00 | 00:00:00 | |
| LZ4TU-5 | 2026-09-03 11:16:24 | 44.48605 | 26.22275 | 122° | 29km/h | 3774m | 4.0m/s | -0.3°C | 0% | 0hPa | 0V | 00:00:00 | 00:00:00 | 00:00:00 | |
| LZ4TU-5 | 2026-09-03 11:15:19 | 44.48869 | 26.21718 | 124° | 22km/h | 3515m | 5.9m/s | 1.5°C | 0% | 0hPa | 0V | 00:00:00 | 00:00:00 | 00:00:00 | |
| LZ4TU-5 | 2026-09-03 11:15:14 | 44.48886 | 26.21682 | 125° | 26km/h | 3493m | 4.6m/s | 1.6°C | 0% | 0hPa | 0V | 00:00:00 | 00:00:00 | 00:00:00 | |
| LZ4TU-5 | 2026-09-03 11:14:11 | 44.49118 | 26.21221 | 125° | 29km/h | 3224m | 3.5m/s | 3.3°C | 0% | 0hPa | 0V | 00:00:00 | 00:00:00 | 00:00:00 | |
| LZ4TU-5 | 2026-09-03 11:14:06 | 44.49137 | 26.21178 | 124° | 26km/h | 3206m | 3.3m/s | 3.4°C | 0% | 0hPa | 0V | 00:00:00 | 00:00:00 | 00:00:00 | |
| LZ4TU-5 | 2026-09-03 11:13:02 | 44.49253 | 26.20622 | 96° | 24km/h | 2953m | 5.2m/s | 3.5°C | 0% | 0hPa | 0V | 00:00:00 | 00:00:00 | 00:00:00 | |
| LZ4TU-5 | 2026-09-03 11:12:58 | 44.49256 | 26.20589 | 92° | 24km/h | 2933m | 4.3m/s | 3.6°C | 0% | 0hPa | 0V | 00:00:00 | 00:00:00 | 00:00:00 | |
| LZ4TU-5 | 2026-09-03 11:11:53 | 44.49363 | 26.20187 | 114° | 15km/h | 2664m | 3.7m/s | 5.6°C | 0% | 0hPa | 0V | 00:00:00 | 00:00:00 | 00:00:00 | |
| LZ4TU-5 | 2026-09-03 11:11:48 | 44.49373 | 26.20168 | 139° | 16km/h | 2646m | 2.5m/s | 5.7°C | 0% | 0hPa | 0V | 00:00:00 | 00:00:00 | 00:00:00 | |
| LZ4TU-5 | 2026-09-03 11:10:44 | 44.49493 | 26.19884 | 131° | 13km/h | 2384m | 3.7m/s | 7.8°C | 0% | 0hPa | 0V | 00:00:00 | 00:00:00 | 00:00:00 | |
| LZ4TU-5 | 2026-09-03 11:10:40 | 44.49501 | 26.19868 | 118° | 15km/h | 2370m | 3.2m/s | 7.8°C | 0% | 0hPa | 0V | 00:00:00 | 00:00:00 | 00:00:00 | |
| LZ4TU-5 | 2026-09-03 11:09:35 | 44.49636 | 26.19721 | 36° | 5km/h | 2090m | 3.8m/s | 10.0°C | 0% | 0hPa | 0V | 00:00:00 | 00:00:00 | 00:00:00 | |
| LZ4TU-5 | 2026-09-03 11:09:30 | 44.49636 | 26.19716 | 181° | 11km/h | 2064m | 3.1m/s | 0°C | 0% | 0hPa | 0V | 00:00:00 | 00:00:00 | 00:00:00 | |
| LZ4TU-5 | 2026-09-03 11:08:26 | 44.49658 | 26.19541 | 112° | 5km/h | 1782m | 4.9m/s | 0°C | 0% | 0hPa | 0V | 00:00:00 | 00:00:00 | 00:00:00 |